createdAt,value
2022-11-27T00:04:22.064Z,18.83
2022-11-27T00:09:28.419Z,17.35
2022-11-27T00:14:34.941Z,18.08
2022-11-27T00:19:42.752Z,16.67
2022-11-27T00:24:49.105Z,18.95
2022-11-27T00:29:55.702Z,19.05
2022-11-27T00:35:03.816Z,17.35
2022-11-27T00:40:11.991Z,19.17
2022-11-27T00:45:19.030Z,19.50
2022-11-27T00:50:27.426Z,18.50
2022-11-27T00:55:34.052Z,20.23
2022-11-27T01:00:40.539Z,19.80
2022-11-27T01:05:48.209Z,21.10
2022-11-27T01:10:56.643Z,20.77
2022-11-27T01:16:05.856Z,23.90
2022-11-27T01:21:14.942Z,21.52
2022-11-27T01:26:22.256Z,24.15
2022-11-27T01:31:31.840Z,23.02
2022-11-27T01:36:39.879Z,23.40
2022-11-27T01:41:46.903Z,21.40
2022-11-27T01:46:57.780Z,20.98
2022-11-27T01:52:11.092Z,19.98
2022-11-27T01:57:24.115Z,21.08
2022-11-27T02:02:30.587Z,22.17
2022-11-27T02:07:39.230Z,21.85
2022-11-27T02:12:58.335Z,21.57
2022-11-27T02:18:15.048Z,20.70
2022-11-27T02:24:27.104Z,21.02
2022-11-27T02:29:37.367Z,21.85
2022-11-27T02:34:51.801Z,24.90
2022-11-27T02:40:04.369Z,25.92
2022-11-27T02:45:16.769Z,27.25
2022-11-27T02:50:27.064Z,25.48
2022-11-27T02:55:37.815Z,27.50
2022-11-27T03:00:47.743Z,27.02
2022-11-27T03:05:59.691Z,24.70
2022-11-27T03:11:09.912Z,22.35
2022-11-27T03:16:26.936Z,24.10
2022-11-27T03:21:39.338Z,26.45
2022-11-27T03:26:45.883Z,26.15
2022-11-27T03:31:54.666Z,27.17
2022-11-27T03:37:01.015Z,27.05
2022-11-27T03:42:20.927Z,28.08
2022-11-27T03:47:46.710Z,28.27
2022-11-27T03:53:07.417Z,25.90
2022-11-27T03:58:22.596Z,26.73
2022-11-27T04:03:31.927Z,26.95
2022-11-27T04:08:38.318Z,29.95
2022-11-27T04:13:44.499Z,28.88
2022-11-27T04:18:52.184Z,26.75
2022-11-27T04:23:58.345Z,30.42
2022-11-27T04:29:04.660Z,28.55
2022-11-27T04:34:12.207Z,27.45
2022-11-27T04:39:18.811Z,25.35
2022-11-27T04:44:25.110Z,27.10
2022-11-27T04:49:32.842Z,28.42
2022-11-27T04:54:39.788Z,29.90
2022-11-27T04:59:46.978Z,27.95
2022-11-27T05:04:55.347Z,27.08
2022-11-27T05:10:01.886Z,28.52
2022-11-27T05:15:11.671Z,31.07
2022-11-27T05:20:20.033Z,26.33
2022-11-27T05:25:26.389Z,28.08
2022-11-27T05:30:32.771Z,27.63
2022-11-27T05:35:40.583Z,26.20
2022-11-27T05:40:46.951Z,23.95
2022-11-27T05:45:53.584Z,28.10
2022-11-27T05:51:01.669Z,26.60
2022-11-27T05:56:12.240Z,24.50
2022-11-27T06:01:20.150Z,25.83
2022-11-27T06:06:27.971Z,23.33
2022-11-27T06:11:34.373Z,25.10
2022-11-27T06:16:40.807Z,28.48
2022-11-27T06:21:48.753Z,25.90
2022-11-27T06:26:54.953Z,26.08
2022-11-27T06:32:01.983Z,25.17
2022-11-27T06:37:13.140Z,25.25
2022-11-27T06:42:20.318Z,26.38
2022-11-27T06:47:26.893Z,26.55
2022-11-27T06:52:40.003Z,27.95
2022-11-27T06:57:47.386Z,27.05
2022-11-27T07:02:57.002Z,26.02
2022-11-27T07:08:04.801Z,25.98
2022-11-27T07:13:10.996Z,27.15
2022-11-27T07:18:17.159Z,27.08
2022-11-27T07:23:25.003Z,25.50
2022-11-27T07:28:31.177Z,24.83
2022-11-27T07:33:37.444Z,25.25
2022-11-27T07:38:45.472Z,25.63
2022-11-27T07:43:52.227Z,27.60
2022-11-27T07:49:00.926Z,26.05
2022-11-27T07:54:10.024Z,26.50
2022-11-27T07:59:16.334Z,22.83
2022-11-27T08:04:22.808Z,22.95
2022-11-27T08:09:31.969Z,24.50
2022-11-27T08:14:38.504Z,26.10
2022-11-27T08:19:44.734Z,23.83
2022-11-27T08:24:53.191Z,25.48
2022-11-27T08:29:59.506Z,26.58
2022-11-27T08:35:06.087Z,26.77
2022-11-27T08:40:14.628Z,25.90
2022-11-27T08:45:20.943Z,28.25
2022-11-27T08:50:27.548Z,28.02
2022-11-27T08:55:35.404Z,27.83
2022-11-27T09:00:43.757Z,25.98
2022-11-27T09:05:50.025Z,26.13
2022-11-27T09:11:02.251Z,27.65
2022-11-27T09:16:11.543Z,25.45
2022-11-27T09:21:19.939Z,27.00
2022-11-27T09:26:28.333Z,26.03
2022-11-27T09:31:34.638Z,26.25
2022-11-27T09:36:40.954Z,27.75
2022-11-27T09:41:53.021Z,25.35
2022-11-27T09:47:03.450Z,26.30
2022-11-27T09:52:18.146Z,26.92
2022-11-27T09:57:33.621Z,27.90
2022-11-27T10:02:40.168Z,28.48
2022-11-27T10:08:32.783Z,26.63
2022-11-27T10:14:07.662Z,26.90
2022-11-27T10:19:27.552Z,25.92
2022-11-27T10:24:43.477Z,27.17
2022-11-27T10:29:56.045Z,25.35
2022-11-27T10:35:07.277Z,25.30
2022-11-27T10:40:24.991Z,24.55
2022-11-27T10:45:45.539Z,25.50
2022-11-27T10:50:53.135Z,24.83
2022-11-27T10:56:52.202Z,27.60
2022-11-27T11:02:01.444Z,24.88
2022-11-27T11:07:27.688Z,23.25
2022-11-27T11:12:34.423Z,22.10
2022-11-27T11:17:42.131Z,24.20
2022-11-27T11:22:49.546Z,22.90
2022-11-27T11:27:56.191Z,23.23
2022-11-27T11:33:05.884Z,25.52
2022-11-27T11:38:20.309Z,22.92
2022-11-27T11:43:29.419Z,23.88
2022-11-27T11:48:38.746Z,22.63
2022-11-27T11:53:51.068Z,23.40
2022-11-27T11:59:00.179Z,23.45
2022-11-27T12:04:35.892Z,23.45
2022-11-27T12:09:56.742Z,23.63
2022-11-27T12:15:09.016Z,24.30
2022-11-27T12:20:25.413Z,22.17
2022-11-27T12:25:37.954Z,26.00
2022-11-27T12:30:54.061Z,25.05
2022-11-27T12:36:13.748Z,35.92
2022-11-27T12:41:54.825Z,27.27
2022-11-27T12:47:06.613Z,23.52
2022-11-27T12:52:20.822Z,24.02
2022-11-27T12:57:38.344Z,23.95
2022-11-27T13:02:54.535Z,23.85
2022-11-27T13:08:08.427Z,24.50
2022-11-27T13:13:19.955Z,23.00
2022-11-27T13:18:35.366Z,24.75
2022-11-27T13:23:44.175Z,22.00
2022-11-27T13:28:55.821Z,23.25
2022-11-27T13:34:07.718Z,22.25
2022-11-27T13:39:29.305Z,22.55
2022-11-27T13:44:40.127Z,22.05
2022-11-27T13:49:48.320Z,23.55
2022-11-27T13:54:59.009Z,22.67
2022-11-27T14:00:10.385Z,22.63
2022-11-27T14:05:22.944Z,22.55
2022-11-27T14:10:34.521Z,24.92
2022-11-27T14:15:43.098Z,22.17
2022-11-27T14:20:54.178Z,24.30
2022-11-27T14:26:14.825Z,22.98
2022-11-27T14:31:30.107Z,20.52
2022-11-27T14:36:37.688Z,23.10
2022-11-27T14:41:46.809Z,25.63
2022-11-27T14:46:55.955Z,23.00
2022-11-27T14:52:07.493Z,27.33
2022-11-27T14:57:22.105Z,23.40
2022-11-27T15:02:29.680Z,22.73
2022-11-27T15:07:46.530Z,21.85
2022-11-27T15:12:58.294Z,23.40
2022-11-27T15:18:08.552Z,22.65
2022-11-27T15:23:19.782Z,21.95
2022-11-27T15:28:37.324Z,25.02
2022-11-27T15:33:44.099Z,23.77
2022-11-27T15:38:52.977Z,23.45
2022-11-27T15:44:01.181Z,24.33
2022-11-27T15:49:14.488Z,24.92
2022-11-27T15:54:22.214Z,22.45
2022-11-27T15:59:31.031Z,25.10
2022-11-27T16:04:37.610Z,28.58
2022-11-27T16:09:44.801Z,26.95
2022-11-27T16:14:53.415Z,26.42
2022-11-27T16:20:00.642Z,26.77
2022-11-27T16:25:11.556Z,28.10
2022-11-27T16:30:23.056Z,29.50
2022-11-27T16:35:31.776Z,28.25
2022-11-27T16:40:39.875Z,30.50
2022-11-27T16:45:48.938Z,27.73
2022-11-27T16:51:05.336Z,26.10
2022-11-27T16:56:15.821Z,27.75
2022-11-27T17:01:28.946Z,28.67
2022-11-27T17:06:38.752Z,28.48
2022-11-27T17:11:50.495Z,26.48
2022-11-27T17:17:01.461Z,27.95
2022-11-27T17:22:10.387Z,27.08
2022-11-27T17:27:19.333Z,28.88
2022-11-27T17:32:28.696Z,34.20
2022-11-27T17:37:36.693Z,34.55
2022-11-27T17:42:45.152Z,33.65
2022-11-27T17:53:06.181Z,28.52
2022-11-27T17:58:14.897Z,30.27
2022-11-27T18:03:24.578Z,29.42
2022-11-27T18:08:33.612Z,29.38
2022-11-27T18:13:42.236Z,27.57
2022-11-27T18:18:55.957Z,32.88
2022-11-27T18:29:33.512Z,31.77
2022-11-27T18:34:44.017Z,29.43
2022-11-27T18:39:52.331Z,28.90
2022-11-27T18:45:00.266Z,37.53
2022-11-27T18:50:12.975Z,34.83
2022-11-27T18:55:22.415Z,31.80
2022-11-27T19:00:30.311Z,29.42
2022-11-27T19:05:41.383Z,27.42
2022-11-27T19:10:49.235Z,30.80
2022-11-27T19:15:56.913Z,46.30
2022-11-27T19:21:12.886Z,58.72
2022-11-27T19:26:22.830Z,50.92
2022-11-27T19:31:31.574Z,46.67
2022-11-27T19:36:46.508Z,55.72
2022-11-27T19:41:54.565Z,77.13
2022-11-27T19:47:03.257Z,63.10
2022-11-27T19:52:14.137Z,64.00
2022-11-27T19:57:21.434Z,57.40
2022-11-27T20:02:30.745Z,55.20
2022-11-27T20:07:41.775Z,71.28
2022-11-27T20:12:49.866Z,64.88
2022-11-27T20:17:59.006Z,61.80
2022-11-27T20:23:08.715Z,87.37
2022-11-27T20:28:15.925Z,75.22
2022-11-27T20:33:24.531Z,59.40
2022-11-27T20:38:33.698Z,54.50
2022-11-27T20:43:44.708Z,53.67
2022-11-27T20:48:55.860Z,62.13
2022-11-27T20:54:06.754Z,53.78
2022-11-27T20:59:15.226Z,48.75
2022-11-27T21:04:26.131Z,35.75
2022-11-27T21:09:35.568Z,29.73
2022-11-27T21:14:43.020Z,26.67
2022-11-27T21:19:52.107Z,25.45
2022-11-27T21:25:00.991Z,24.73
2022-11-27T21:30:11.517Z,27.15
2022-11-27T21:35:18.943Z,32.25
2022-11-27T21:40:27.539Z,32.22
2022-11-27T21:45:37.702Z,37.17
2022-11-27T21:50:44.937Z,36.08
2022-11-27T21:55:52.881Z,32.53
2022-11-27T22:00:59.385Z,31.95
2022-11-27T22:06:08.823Z,30.42
2022-11-27T22:11:19.628Z,31.30
2022-11-27T22:16:29.907Z,34.15
2022-11-27T22:21:37.150Z,33.33
2022-11-27T22:26:45.211Z,32.40
2022-11-27T22:31:54.957Z,35.20
2022-11-27T22:37:04.076Z,35.35
2022-11-27T22:42:12.576Z,34.67
2022-11-27T22:47:19.376Z,34.35
2022-11-27T22:52:26.746Z,35.97
2022-11-27T22:57:36.410Z,31.33
2022-11-27T23:02:43.062Z,33.37
2022-11-27T23:07:49.969Z,34.13
2022-11-27T23:12:59.084Z,31.33
2022-11-27T23:18:06.349Z,33.42
2022-11-27T23:23:13.353Z,34.38
2022-11-27T23:28:21.547Z,32.22
2022-11-27T23:33:28.016Z,32.50
2022-11-27T23:38:34.774Z,33.75
2022-11-27T23:43:43.895Z,34.35
2022-11-27T23:48:50.503Z,34.95
2022-11-27T23:53:57.425Z,33.00
2022-11-27T23:59:05.808Z,33.40
